M I D A S
Marine Information and Data Acquisition System
Tripno 2132 of the Zeeleeuw from 2011-01-21 07:34:33 to 2011-01-21 16:03:05
Back to CruiseResearch ActivitiesStationsMapUnderway DataData graphs

EquipmentUnitsComment
TimeDGPSUTC
LatitudeDGPSDM.mWGS84
LongitudeDGPSDM.mWGS84
HeadingGyrodeg 
SOGDGPSknotsSpeed over ground
COGDGPSdegCourse over ground
DepthEcho soundermeters200 kHz
Missing or incorrect values are displayed as -999
Navigation data collected by the RV Zeeleeuw from 2011-01-21 07:39:10 to 2011-01-21 16:03:00
Time Latitude Longitude Heading SOG COG Depth
2011-01-21 07:40:19 51°13.676 2°55.878 103.4 4.2 286 -999
2011-01-21 07:41:01 51°13.689 2°55.81 93 -999 282 -999
2011-01-21 07:42:19 51°13.695 2°55.736 70.7 0.8 272 -999
2011-01-21 07:43:18 51°13.701 2°55.733 43.2 0.7 18 -999
2011-01-21 07:44:18 51°13.721 2°55.736 4 0.9 355 -999
2011-01-21 07:45:18 51°13.755 2°55.711 325.3 3.5 325 8.9
2011-01-21 07:46:18 51°13.831 2°55.63 329.1 6.4 331 9.7
2011-01-21 07:46:52 51°13.898 2°55.578 335.4 -999 155 -999
2011-01-21 07:48:19 51°14.097 2°55.433 333.6 9.5 334 -999
2011-01-21 07:49:19 51°14.241 2°55.314 329.9 9.9 330 -999
2011-01-21 07:50:18 51°14.384 2°55.175 326.9 10.6 328 8.6
2011-01-21 07:51:18 51°14.537 2°55.005 325.2 11.7 316 10.1
2011-01-21 07:52:15 51°14.624 2°54.717 289 13.4 287 10
2011-01-21 07:53:15 51°14.689 2°54.378 290.7 13.4 288 8.5
2011-01-21 07:54:15 51°14.762 2°54.037 291.3 13.6 288 8.1
2011-01-21 07:55:15 51°14.836 2°53.703 292.7 13.5 289 8.1
2011-01-21 07:56:15 51°14.904 2°53.36 289.7 13.7 287 8.5
2011-01-21 07:57:15 51°14.972 2°53.014 286.9 13.8 283 8.7
2011-01-21 07:58:15 51°15.052 2°52.677 299.5 13.7 295 9.1
2011-01-21 07:59:15 51°15.126 2°52.334 292.1 13.7 290 9.3
2011-01-21 08:00:15 51°15.207 2°51.995 293.7 13.7 290 10.3
2011-01-21 08:01:15 51°15.262 2°51.639 281.1 14.1 278 11
2011-01-21 08:02:15 51°15.28 2°51.264 269.2 14.5 266 10.9
2011-01-21 08:03:15 51°15.259 2°50.877 268.3 14.7 267 11.3
2011-01-21 08:04:15 51°15.243 2°50.485 267.6 14.8 265 11.6
2011-01-21 08:05:15 51°15.204 2°50.095 256.3 15.1 256 11.6
2011-01-21 08:06:15 51°15.15 2°49.705 256.9 15.1 257 11.5
2011-01-21 08:07:15 51°15.097 2°49.315 259.7 15 257 11.6
2011-01-21 08:08:15 51°15.045 2°48.926 258.4 15 258 11.5
2011-01-21 08:09:15 51°15.015 2°48.534 269.8 14.8 268 11.7
2011-01-21 08:10:15 51°15.007 2°48.143 270.6 14.5 268 11.9
2011-01-21 08:11:15 51°14.999 2°47.763 269.3 14.2 268 11.7
2011-01-21 08:12:15 51°14.991 2°47.392 269.4 13.8 268 9.9
2011-01-21 08:13:15 51°14.971 2°47.03 261.5 13.7 261 8.5
2011-01-21 08:14:15 51°14.94 2°46.672 268.4 13.6 268 5.9
2011-01-21 08:15:15 51°14.899 2°46.314 252.7 13.9 253 8.3
2011-01-21 08:16:15 51°14.856 2°45.95 264.3 14.2 264 9.2
2011-01-21 08:17:15 51°14.781 2°45.591 246.9 14.3 248 10.2
2011-01-21 08:18:15 51°14.688 2°45.24 246.1 14.5 248 10.8
2011-01-21 08:19:15 51°14.588 2°44.894 242.8 14.4 243 11.4
2011-01-21 08:20:15 51°14.478 2°44.554 238.2 14.5 237 12
2011-01-21 08:21:14 51°14.334 2°44.252 227.9 14.6 228 12.1
2011-01-21 08:22:15 51°14.178 2°43.95 227.8 14.6 231 11.9
2011-01-21 08:23:15 51°14.023 2°43.655 228.4 14.6 231 11.6
2011-01-21 08:24:15 51°13.867 2°43.362 228.5 14.4 230 11.7
2011-01-21 08:25:15 51°13.712 2°43.067 229.4 14.5 231 11.5
2011-01-21 08:26:15 51°13.561 2°42.766 232.3 14.7 234 11.6
2011-01-21 08:27:15 51°13.422 2°42.449 234.2 14.6 234 11.3
2011-01-21 08:28:15 51°13.282 2°42.13 235.2 14.6 234 11.3
2011-01-21 08:29:15 51°13.141 2°41.811 234.2 14.7 234 11.2
2011-01-21 08:30:15 51°12.998 2°41.491 233.8 14.8 235 11.3
2011-01-21 08:31:15 51°12.856 2°41.17 234.5 14.7 234 11
2011-01-21 08:32:15 51°12.714 2°40.852 234.5 14.8 233 11
2011-01-21 08:33:15 51°12.572 2°40.536 233.8 14.7 235 10.8
2011-01-21 08:34:15 51°12.429 2°40.224 233.8 14.6 234 10.8
2011-01-21 08:35:15 51°12.29 2°39.91 233.9 14.5 235 10.4
2011-01-21 08:36:15 51°12.149 2°39.597 234.2 14.4 234 9.9
2011-01-21 08:37:15 51°12.011 2°39.283 234.5 14.5 235 9.8
2011-01-21 08:38:15 51°11.872 2°38.969 234.8 14.6 235 9.7
2011-01-21 08:39:15 51°11.729 2°38.663 234.9 14.3 236 9.4
2011-01-21 08:40:15 51°11.59 2°38.352 234.5 14.5 236 9.4
2011-01-21 08:41:15 51°11.451 2°38.041 233.5 14.6 233 9.8
2011-01-21 08:42:15 51°11.311 2°37.726 235.6 14.5 235 10.7
2011-01-21 08:43:15 51°11.171 2°37.413 235 14.5 234 11
2011-01-21 08:44:15 51°11.032 2°37.101 235 14.3 235 11
2011-01-21 08:45:15 51°10.882 2°36.803 223.6 14.4 223 10.7
2011-01-21 08:46:15 51°10.686 2°36.582 211.6 14.4 213 9.6
2011-01-21 08:47:15 51°10.464 2°36.479 177.6 13.5 178 8.4
2011-01-21 08:48:15 51°10.25 2°36.6 149.9 14 156 15.3
2011-01-21 08:49:15 51°10.038 2°36.735 152.7 13.8 161 17
2011-01-21 08:50:15 51°9.823 2°36.843 151 13.3 160 16.6
2011-01-21 08:51:15 51°9.607 2°36.939 162.8 13.7 176 15.1
2011-01-21 08:52:15 51°9.4 2°36.773 217.7 14.6 226 14.9
2011-01-21 08:53:15 51°9.28 2°36.438 245.6 14.8 247 14.9
2011-01-21 08:54:15 51°9.171 2°36.085 236.4 15 240 15
2011-01-21 08:55:15 51°9.046 2°35.741 236.8 15.1 241 15.2
2011-01-21 08:56:15 51°8.922 2°35.395 236.9 15.1 241 15.2
2011-01-21 08:57:14 51°8.802 2°35.051 237.8 15.1 240 15.5
2011-01-21 08:58:15 51°8.677 2°34.694 238.9 15.2 242 15.5
2011-01-21 08:59:14 51°8.555 2°34.352 238.2 15.1 238 15.9
2011-01-21 09:00:15 51°8.431 2°33.996 239.6 15.2 242 16
2011-01-21 09:01:15 51°8.31 2°33.645 239.1 15.2 241 15.8
2011-01-21 09:02:15 51°8.19 2°33.296 238.7 15.1 241 15.5
2011-01-21 09:03:15 51°8.07 2°32.949 239.5 14.8 241 15.1
2011-01-21 09:04:15 51°7.953 2°32.61 239.7 14.6 242 14.6
2011-01-21 09:05:15 51°7.946 2°32.258 297.5 13.4 298 15.6
2011-01-21 09:06:15 51°8.079 2°31.964 311.2 13.9 305 18.5
2011-01-21 09:07:15 51°8.23 2°31.701 333.5 12.8 330 17.7
2011-01-21 09:08:15 51°8.38 2°31.794 56.5 10.8 58 17.6
2011-01-21 09:09:15 51°8.502 2°32.015 44 11.2 43 17.8
2011-01-21 09:10:15 51°8.633 2°32.226 48 11.3 48 18
2011-01-21 09:11:15 51°8.76 2°32.448 48 11.4 48 18.3
2011-01-21 09:12:15 51°8.887 2°32.67 49 11.3 49 18
2011-01-21 09:13:15 51°9.014 2°32.898 45.4 11.6 46 17.4
2011-01-21 09:14:15 51°9.145 2°33.124 47.8 11.6 48 16.2
2011-01-21 09:15:15 51°9.274 2°33.36 46.1 12 47 15.3
2011-01-21 09:16:15 51°9.414 2°33.587 44.5 12 46 13.6
2011-01-21 09:17:15 51°9.551 2°33.817 45.1 11.9 46 12.1
2011-01-21 09:18:15 51°9.688 2°34.048 46.2 12 47 11
2011-01-21 09:19:15 51°9.827 2°34.276 44.9 12 46 10.2
2011-01-21 09:20:15 51°9.967 2°34.505 43.5 12.1 43 10.3
2011-01-21 09:21:15 51°10.112 2°34.725 42.6 12.1 44 10.5
2011-01-21 09:22:15 51°10.263 2°34.936 39.3 12 40 10.3
2011-01-21 09:23:15 51°10.419 2°35.131 37 11.8 38 9.3
2011-01-21 09:24:15 51°10.578 2°35.317 33.4 11.9 34 9
2011-01-21 09:25:15 51°10.739 2°35.5 34.3 11.8 35 9.4
2011-01-21 09:26:15 51°10.9 2°35.684 34.4 11.9 34 9.6
2011-01-21 09:27:15 51°11.062 2°35.866 34.4 11.9 34 9.8
2011-01-21 09:28:15 51°11.224 2°36.049 35.6 11.9 35 10
2011-01-21 09:29:15 51°11.386 2°36.229 34.8 11.9 35 10
2011-01-21 09:30:15 51°11.547 2°36.411 34.5 11.9 35 10.1
2011-01-21 09:31:15 51°11.709 2°36.591 34.5 11.9 34 10.2
2011-01-21 09:32:15 51°11.87 2°36.769 34.9 11.8 35 9.8
2011-01-21 09:33:15 51°12.03 2°36.946 34.8 11.8 34 9.8
2011-01-21 09:34:15 51°12.196 2°37.116 33.4 11.8 33 10.3
2011-01-21 09:35:15 51°12.363 2°37.285 32.7 11.7 33 10.8
2011-01-21 09:36:15 51°12.526 2°37.452 33.4 11.7 33 11.4
2011-01-21 09:37:15 51°12.69 2°37.62 33.2 11.9 32 12.1
2011-01-21 09:38:15 51°12.857 2°37.792 34.2 11.9 33 12.2
2011-01-21 09:39:15 51°13.036 2°37.927 22.9 11.9 20 12.8
2011-01-21 09:40:15 51°13.228 2°37.877 339.6 12.4 334 12.5
2011-01-21 09:41:15 51°13.41 2°37.715 327.9 12.6 319 9.9
2011-01-21 09:42:15 51°13.511 2°37.413 297.3 13.1 293 8.5
2011-01-21 09:43:15 51°13.609 2°37.089 299.9 14.3 293 14.7
2011-01-21 09:44:15 51°13.615 2°36.713 266.9 14.5 266 18.5
2011-01-21 09:45:15 51°13.6 2°36.328 267.6 14.7 266 19.2
2011-01-21 09:46:15 51°13.588 2°35.943 268.5 14.6 267 17.9
2011-01-21 09:47:15 51°13.568 2°35.562 261.5 14.4 256 16
2011-01-21 09:48:15 51°13.421 2°35.274 216.6 14.5 221 16.5
2011-01-21 09:49:15 51°13.238 2°35.017 218.5 14.7 221 17.1
2011-01-21 09:50:15 51°13.056 2°34.755 219.3 14.9 224 17.7
2011-01-21 09:51:15 51°12.871 2°34.497 218.6 14.9 221 17.4
2011-01-21 09:52:15 51°12.694 2°34.231 223.6 14.6 228 15.3
2011-01-21 09:53:15 51°12.565 2°33.901 240.4 14.7 241 15.5
2011-01-21 09:54:15 51°12.442 2°33.564 241.4 14.7 239 15.7
2011-01-21 09:55:14 51°12.321 2°33.236 240.6 14.6 238 15.7
2011-01-21 09:56:15 51°12.195 2°32.898 240.5 14.5 240 15.6
2011-01-21 09:57:15 51°12.072 2°32.568 239.6 14.5 239 15.6
2011-01-21 09:58:15 51°11.946 2°32.242 239.3 14.4 239 15.7
2011-01-21 09:59:15 51°11.883 2°31.885 267.7 14 265 16
2011-01-21 10:00:15 51°11.916 2°31.527 292.7 13.5 290 17.6
2011-01-21 10:01:15 51°12.027 2°31.219 308 13.5 301 21.6
2011-01-21 10:02:15 51°12.182 2°30.978 328.2 13 320 22.4
2011-01-21 10:03:15 51°12.357 2°30.797 346.4 12.1 342 22.2
2011-01-21 10:04:15 51°12.555 2°30.742 358 12.1 351 24
2011-01-21 10:05:15 51°12.747 2°30.777 22.5 11.6 21 23.2
2011-01-21 10:06:15 51°12.921 2°30.91 27.9 11.6 26 23
2011-01-21 10:07:15 51°13.094 2°31.046 28 11.6 26 23
2011-01-21 10:08:15 51°13.267 2°31.183 28.4 11.6 27 21.5
2011-01-21 10:09:15 51°13.439 2°31.323 29.4 11.5 27 21
2011-01-21 10:10:15 51°13.61 2°31.465 29 11.6 28 21
2011-01-21 10:11:15 51°13.781 2°31.607 29.4 11.7 28 19.7
2011-01-21 10:12:15 51°13.952 2°31.752 29.4 11.6 28 19
2011-01-21 10:13:14 51°14.121 2°31.895 29.3 11.7 28 18.5
2011-01-21 10:14:15 51°14.295 2°32.043 28.8 11.6 27 17.7
2011-01-21 10:15:15 51°14.468 2°32.189 29.9 11.8 28 15.3
2011-01-21 10:16:15 51°14.64 2°32.337 29.1 11.7 28 14
2011-01-21 10:17:15 51°14.813 2°32.484 29.8 11.8 29 12.5
2011-01-21 10:18:15 51°14.986 2°32.632 29.1 11.8 28 11.7
2011-01-21 10:19:15 51°15.159 2°32.783 29.8 11.9 29 11.2
2011-01-21 10:20:15 51°15.333 2°32.932 29.9 11.9 29 10.4
2011-01-21 10:21:15 51°15.507 2°33.082 29.8 11.9 29 10.2
2011-01-21 10:22:15 51°15.685 2°33.222 22.5 11.8 16 10
2011-01-21 10:23:15 51°15.874 2°33.142 331.2 12.6 326 9.5
2011-01-21 10:24:15 51°16.048 2°32.955 330.3 12.7 327 8.8
2011-01-21 10:25:15 51°16.209 2°32.726 304.8 13.4 300 22.8
2011-01-21 10:26:15 51°16.209 2°32.375 258.1 13.9 259 27.3
2011-01-21 10:27:15 51°16.168 2°32.01 262.5 14.1 264 27.4
2011-01-21 10:28:15 51°16.131 2°31.639 258.5 14.3 258 27.7
2011-01-21 10:29:15 51°16.082 2°31.269 259.2 14.3 258 28.5
2011-01-21 10:30:15 51°16.03 2°30.896 259.2 14.4 258 29.7
2011-01-21 10:31:15 51°15.979 2°30.525 259.1 14.2 258 29.6
2011-01-21 10:32:15 51°15.929 2°30.155 260.1 14.2 259 29.8
2011-01-21 10:33:15 51°15.877 2°29.786 259 14.3 257 29.7
2011-01-21 10:34:15 51°15.827 2°29.418 258.9 14.3 259 29.4
2011-01-21 10:35:15 51°15.774 2°29.05 259.2 14.2 255 29.6
2011-01-21 10:36:14 51°15.721 2°28.69 259.2 14.1 257 29.4
2011-01-21 10:37:15 51°15.663 2°28.318 258.6 14.2 257 29.5
2011-01-21 10:38:14 51°15.61 2°27.955 259.9 14.4 257 29
2011-01-21 10:39:15 51°15.553 2°27.582 258.6 14.3 255 28.2
2011-01-21 10:40:14 51°15.498 2°27.223 259.5 14.2 257 25.8
2011-01-21 10:41:15 51°15.443 2°26.851 258.6 14 256 21.5
2011-01-21 10:42:15 51°15.391 2°26.49 259.5 13.9 258 15.2
2011-01-21 10:43:15 51°15.342 2°26.132 259.2 13.8 258 12.6
2011-01-21 10:44:15 51°15.321 2°25.776 270.6 13.5 270 12.4
2011-01-21 10:45:14 51°15.315 2°25.429 269.4 13.3 270 10.7
2011-01-21 10:46:15 51°15.316 2°25.07 270.6 13.4 273 14.6
2011-01-21 10:47:14 51°15.436 2°24.819 332.2 12.7 333 19.7
2011-01-21 10:48:15 51°15.645 2°24.771 9.1 12.8 11 21.2
2011-01-21 10:49:14 51°15.839 2°24.902 28.2 13 29 21.4
2011-01-21 10:50:15 51°16.03 2°25.072 28.5 13 30 23.2
2011-01-21 10:51:15 51°16.22 2°25.239 28.5 13 30 23.8
2011-01-21 10:52:15 51°16.409 2°25.406 28.4 12.9 29 25.4
2011-01-21 10:53:15 51°16.6 2°25.563 23.4 12.8 24 28.2
2011-01-21 10:54:15 51°16.789 2°25.723 36.3 12.9 36 30.7
2011-01-21 10:55:15 51°16.982 2°25.87 24.6 12.8 25 32.8
2011-01-21 10:56:14 51°17.171 2°26.015 27.5 12.7 28 33.6
2011-01-21 10:57:15 51°17.363 2°26.17 26.7 12.7 27 34.3
2011-01-21 10:58:14 51°17.548 2°26.323 27.4 12.8 27 34.4
2011-01-21 10:59:15 51°17.739 2°26.482 27.7 12.7 28 34.2
2011-01-21 11:00:15 51°17.928 2°26.638 27.7 12.7 27 34.4
2011-01-21 11:01:15 51°18.116 2°26.796 27.1 12.9 27 34.2
2011-01-21 11:02:15 51°18.305 2°26.958 27.7 12.8 29 34.7
2011-01-21 11:03:15 51°18.493 2°27.117 26.8 12.7 27 35.9
2011-01-21 11:04:15 51°18.699 2°27.146 352.1 12.7 350 34.7
2011-01-21 11:05:15 51°18.906 2°27.072 348.4 12.8 349 34.1
2011-01-21 11:06:15 51°19.115 2°27.004 348.6 12.8 350 32.7
2011-01-21 11:07:14 51°19.32 2°26.941 348.9 12.7 349 31.6
2011-01-21 11:08:15 51°19.531 2°26.875 349.2 12.7 350 29.9
2011-01-21 11:09:15 51°19.739 2°26.813 349.2 12.7 350 30.5
2011-01-21 11:10:15 51°19.947 2°26.751 349.6 12.7 349 29.7
2011-01-21 11:11:15 51°20.154 2°26.687 348.5 12.7 349 30.3
2011-01-21 11:12:15 51°20.359 2°26.618 348.9 12.6 348 32.8
2011-01-21 11:13:15 51°20.565 2°26.554 349.9 12.7 350 37
2011-01-21 11:14:14 51°20.769 2°26.49 349.4 12.6 348 37.1
2011-01-21 11:15:15 51°20.981 2°26.423 349.2 12.9 348 36.6
2011-01-21 11:16:14 51°21.186 2°26.357 348.6 12.8 348 37.4
2011-01-21 11:17:15 51°21.398 2°26.289 350.1 12.8 349 37.6
2011-01-21 11:18:14 51°21.603 2°26.221 348.5 12.7 348 37.4
2011-01-21 11:19:15 51°21.813 2°26.15 349.5 12.7 348 37.3
2011-01-21 11:20:14 51°22.017 2°26.084 349.2 12.7 348 35.9
2011-01-21 11:21:15 51°22.229 2°26.018 348.9 12.7 349 35.5
2011-01-21 11:22:15 51°22.438 2°25.955 349.3 12.8 350 34.5
2011-01-21 11:23:15 51°22.649 2°25.893 349 12.9 350 27.5
2011-01-21 11:24:15 51°22.86 2°25.842 349.3 12.9 351 18.9
2011-01-21 11:25:15 51°23.072 2°25.794 352.3 13 356 25.3
2011-01-21 11:26:15 51°23.285 2°25.848 15.6 13.3 19 30.4
2011-01-21 11:27:14 51°23.476 2°26.007 33.5 13.3 36 31.4
2011-01-21 11:28:15 51°23.665 2°26.203 29.1 13.2 31 32.5
2011-01-21 11:29:15 51°23.857 2°26.384 29 13.4 31 32.6
2011-01-21 11:30:15 51°24.049 2°26.566 29.1 13.5 32 32.3
2011-01-21 11:31:15 51°24.244 2°26.744 28 13.5 30 32.8
2011-01-21 11:32:15 51°24.438 2°26.919 27.3 13.5 29 32.9
2011-01-21 11:33:15 51°24.633 2°27.093 27.7 13.3 29 32.3
2011-01-21 11:34:15 51°24.827 2°27.269 27.2 13.4 30 31.9
2011-01-21 11:35:15 51°25.022 2°27.443 27.5 13.2 29 33.3
2011-01-21 11:36:14 51°25.212 2°27.615 29.6 13.3 32 34.3
2011-01-21 11:37:14 51°25.4 2°27.803 31.2 13.4 33 33.6
2011-01-21 11:38:14 51°25.588 2°27.992 30.9 13.3 32 33.3
2011-01-21 11:39:14 51°25.777 2°28.18 30.4 13.4 32 34.9
2011-01-21 11:40:14 51°25.966 2°28.37 29.9 13.3 32 33.5
2011-01-21 11:41:14 51°26.154 2°28.557 30.7 13.4 32 34.7
2011-01-21 11:42:15 51°26.344 2°28.75 30.6 13.3 31 35.2
2011-01-21 11:43:15 51°26.533 2°28.936 30.3 13.1 32 34.9
2011-01-21 11:44:15 51°26.721 2°29.125 29.9 13.3 32 35.8
2011-01-21 11:45:15 51°26.909 2°29.315 29.8 13.4 31 35.8
2011-01-21 11:46:14 51°27.098 2°29.5 30.1 13.5 32 36.3
2011-01-21 11:47:14 51°27.286 2°29.692 30.3 13.5 32 36.3
2011-01-21 11:48:14 51°27.476 2°29.885 30.7 13.5 33 36.3
2011-01-21 11:49:15 51°27.667 2°30.083 30.4 13.5 32 34.9
2011-01-21 11:50:14 51°27.855 2°30.271 30.6 13.6 33 33.9
2011-01-21 11:51:15 51°28.048 2°30.472 30.6 13.6 33 36.8
2011-01-21 11:52:14 51°28.236 2°30.665 30.3 13.7 33 35.7
2011-01-21 11:53:15 51°28.432 2°30.862 30.3 13.7 32 35.3
2011-01-21 11:54:14 51°28.622 2°31.057 30.6 13.8 33 34.9
2011-01-21 11:55:15 51°28.817 2°31.26 30.8 13.8 33 34.5
2011-01-21 11:56:15 51°29.011 2°31.457 30.8 13.7 33 34.1
2011-01-21 11:57:15 51°29.204 2°31.655 29.6 13.7 32 33.4
2011-01-21 11:58:15 51°29.396 2°31.855 31.1 13.8 34 32.6
2011-01-21 11:59:15 51°29.588 2°32.054 30.4 13.6 33 31.6
2011-01-21 12:00:15 51°29.779 2°32.253 30.6 13.7 33 30.7
2011-01-21 12:01:15 51°29.969 2°32.451 29.7 13.5 33 29
2011-01-21 12:02:15 51°30.161 2°32.65 30.4 13.7 34 28.6
2011-01-21 12:03:15 51°30.357 2°32.829 18.5 13.5 21 26.8
2011-01-21 12:04:15 51°30.563 2°32.979 28.3 13.7 32 26.9
2011-01-21 12:05:15 51°30.756 2°33.178 29.1 13.8 33 25.4
2011-01-21 12:06:15 51°30.947 2°33.381 32.4 13.9 36 24.6
2011-01-21 12:07:15 51°31.133 2°33.6 31.6 13.8 36 21.3
2011-01-21 12:08:14 51°31.316 2°33.814 32.7 13.9 37 22.7
2011-01-21 12:09:15 51°31.503 2°34.04 32.3 13.9 37 19.8
2011-01-21 12:10:14 51°31.696 2°34.214 10 13.1 11 19.2
2011-01-21 12:11:15 51°31.917 2°34.221 354.8 13.2 1 21.6
2011-01-21 12:12:14 51°32.133 2°34.227 358.1 13.3 5 22.5
2011-01-21 12:13:15 51°32.355 2°34.29 5.4 13.4 10 21.9
2011-01-21 12:14:14 51°32.573 2°34.356 6.8 13.5 11 24
2011-01-21 12:15:15 51°32.799 2°34.422 6.3 13.6 10 27.3
2011-01-21 12:16:14 51°33.019 2°34.483 5.6 13.7 9 31.8
2011-01-21 12:17:15 51°33.247 2°34.548 5.7 13.7 10 34.6
2011-01-21 12:18:15 51°33.469 2°34.612 6.6 13.5 10 31.2
2011-01-21 12:19:15 51°33.691 2°34.676 6.3 13.4 10 30.7
2011-01-21 12:20:15 51°33.91 2°34.739 5.9 13.4 10 30
2011-01-21 12:21:15 51°34.131 2°34.807 6.7 13.6 11 29.9
2011-01-21 12:22:15 51°34.352 2°34.871 6.4 13.4 10 32.6
2011-01-21 12:23:14 51°34.57 2°34.931 6.2 13.5 10 38.1
2011-01-21 12:24:14 51°34.791 2°34.995 6.9 13.6 11 37
2011-01-21 12:25:15 51°35.017 2°35.057 6.6 13.5 10 37.2
2011-01-21 12:26:14 51°35.235 2°35.122 7.3 13.6 11 38.7
2011-01-21 12:27:15 51°35.461 2°35.183 5.9 13.5 10 38.8
2011-01-21 12:28:15 51°35.683 2°35.24 6.1 13.5 10 40.6
2011-01-21 12:29:15 51°35.905 2°35.3 5.8 13.5 9 40.6
2011-01-21 12:30:14 51°36.123 2°35.357 6.9 13.5 10 40.7
2011-01-21 12:31:15 51°36.349 2°35.415 5.7 13.5 9 41
2011-01-21 12:32:14 51°36.568 2°35.472 5.4 13.5 9 40.4
2011-01-21 12:33:15 51°36.794 2°35.533 6.3 13.6 8 40.3
2011-01-21 12:34:15 51°37.017 2°35.592 5.7 13.7 10 39.8
2011-01-21 12:35:15 51°37.241 2°35.65 5.3 13.6 9 40.3
2011-01-21 12:36:14 51°37.461 2°35.711 5.7 13.6 9 40.8
2011-01-21 12:37:15 51°37.689 2°35.774 6.7 13.7 10 40.9
2011-01-21 12:38:15 51°37.914 2°35.834 6.3 13.7 9 39.9
2011-01-21 12:39:15 51°38.14 2°35.894 5.7 13.8 9 40.1
2011-01-21 12:40:15 51°38.366 2°35.956 5.9 13.8 10 39.6
2011-01-21 12:41:15 51°38.593 2°36.018 5.8 13.8 10 39.5
2011-01-21 12:42:15 51°38.816 2°36.114 13.4 13.9 17 39.7
2011-01-21 12:43:15 51°39.038 2°36.218 11.7 13.9 15 40
2011-01-21 12:44:14 51°39.257 2°36.323 13.5 14.1 16 39.5
2011-01-21 12:45:15 51°39.483 2°36.429 13.9 13.9 17 38.7
2011-01-21 12:46:14 51°39.701 2°36.529 12.1 14 16 37.3
2011-01-21 12:47:15 51°39.926 2°36.635 13.2 13.8 16 39.1
2011-01-21 12:48:14 51°40.144 2°36.738 12.3 13.9 16 37.7
2011-01-21 12:49:15 51°40.37 2°36.84 11.6 13.9 15 37.4
2011-01-21 12:50:14 51°40.588 2°36.939 12.5 14 15 38.5
2011-01-21 12:51:15 51°40.814 2°37.042 12.5 13.9 16 38.3
2011-01-21 12:52:14 51°41.034 2°37.139 12.4 13.7 15 39.1
2011-01-21 12:53:15 51°41.261 2°37.242 13 13.9 16 37.1
2011-01-21 12:54:15 51°41.484 2°37.343 12.4 13.9 16 38.4
2011-01-21 12:55:15 51°41.707 2°37.441 11.7 13.9 15 39.4
2011-01-21 12:56:15 51°41.923 2°37.566 26.6 13.9 33 38.6
2011-01-21 12:57:15 51°41.987 2°37.895 94.6 13.8 94 40.8
2011-01-21 12:58:15 51°41.99 2°38.272 89.5 14.2 90 42.5
2011-01-21 12:59:15 51°41.994 2°38.651 90.3 14.2 89 44.9
2011-01-21 13:00:14 51°41.999 2°39.023 89.6 14.1 88 45.7
2011-01-21 13:01:14 51°42 2°39.401 88.9 14.1 88 45.9
2011-01-21 13:02:14 51°42.02 2°39.779 85.9 14.2 86 42.4
2011-01-21 13:03:14 51°42.038 2°40.157 87.8 14.2 86 38.6
2011-01-21 13:04:15 51°42.056 2°40.543 87.5 14.1 85 42.9
2011-01-21 13:05:15 51°42.075 2°40.924 86.1 14.1 86 40
2011-01-21 13:06:14 51°42.098 2°41.298 86.4 14.3 84 38.6
2011-01-21 13:07:15 51°42.116 2°41.688 87.8 14.3 87 38
2011-01-21 13:08:14 51°42.132 2°42.064 87.2 14.3 85 41.5
2011-01-21 13:09:15 51°42.148 2°42.453 88.5 14.5 87 37.3
2011-01-21 13:10:14 51°42.166 2°42.831 87 14.3 87 40.1
2011-01-21 13:11:15 51°42.184 2°43.222 87.5 14.4 84 36.7
2011-01-21 13:12:15 51°42.203 2°43.606 87.3 14.4 86 37.6
2011-01-21 13:13:15 51°42.224 2°43.992 85.9 14.3 84 40.4
2011-01-21 13:14:15 51°42.244 2°44.376 88 14.4 86 39.8
2011-01-21 13:15:15 51°42.246 2°44.757 94.9 14.2 93 41
2011-01-21 13:16:15 51°42.198 2°45.123 115.7 13.8 116 37.4
2011-01-21 13:17:15 51°42.034 2°45.337 162.6 12.7 161 40.7
2011-01-21 13:18:15 51°41.827 2°45.38 179.2 12.7 177 41.6
2011-01-21 13:19:14 51°41.625 2°45.368 187.1 12.2 188 42.7
2011-01-21 13:20:14 51°41.428 2°45.29 203.3 12.2 202 40.5
2011-01-21 13:21:14 51°41.248 2°45.148 205.9 12.3 206 43.3
2011-01-21 13:22:14 51°41.067 2°45.009 205.7 11.9 202 41.7
2011-01-21 13:23:15 51°40.887 2°44.859 207.3 12 207 40.3
2011-01-21 13:24:14 51°40.711 2°44.717 207.8 12 207 41.5
2011-01-21 13:25:15 51°40.535 2°44.554 212.7 11.8 213 40.1
2011-01-21 13:26:15 51°40.365 2°44.389 210.4 12 209 39.2
2011-01-21 13:27:15 51°40.192 2°44.225 209.7 12.2 213 40.3
2011-01-21 13:28:14 51°40.023 2°44.065 211.3 12.3 209 39.8
2011-01-21 13:29:15 51°39.85 2°43.897 211.3 12.1 214 38.5
2011-01-21 13:30:14 51°39.682 2°43.74 211.3 11.8 210 38.4
2011-01-21 13:31:15 51°39.51 2°43.575 211 11.9 212 37.9
2011-01-21 13:32:15 51°39.34 2°43.41 209.8 11.7 207 38.6
2011-01-21 13:33:15 51°39.168 2°43.249 211 12 211 39.2
2011-01-21 13:34:15 51°38.996 2°43.09 210.3 11.9 207 40
2011-01-21 13:35:15 51°38.827 2°42.928 210.4 11.8 208 39.3
2011-01-21 13:36:15 51°38.656 2°42.769 210.4 12 210 38.6
2011-01-21 13:37:15 51°38.485 2°42.604 210.6 11.8 211 37.7
2011-01-21 13:38:15 51°38.312 2°42.444 209.6 12.2 210 36.9
2011-01-21 13:39:14 51°38.14 2°42.294 203.2 12.1 201 35.9
2011-01-21 13:40:14 51°37.948 2°42.2 199.4 12.2 199 37.1
2011-01-21 13:41:15 51°37.754 2°42.101 198.2 12 197 35.9
2011-01-21 13:42:14 51°37.566 2°42.007 199 12 199 37
2011-01-21 13:43:15 51°37.371 2°41.911 199.5 11.7 196 35.3
2011-01-21 13:44:14 51°37.179 2°41.829 195.5 12.1 194 35.9
2011-01-21 13:45:15 51°36.982 2°41.747 196.1 12.1 196 33.9
2011-01-21 13:46:14 51°36.791 2°41.672 194.6 12 191 32.3
2011-01-21 13:47:15 51°36.593 2°41.593 197.3 12.1 192 31.8
2011-01-21 13:48:15 51°36.398 2°41.514 195.1 12.2 192 27.5
2011-01-21 13:49:14 51°36.207 2°41.44 196.9 12 194 29.5
2011-01-21 13:50:14 51°36.011 2°41.367 195.7 12.1 192 29.3
2011-01-21 13:51:15 51°35.813 2°41.292 195.8 12.1 194 29.3
2011-01-21 13:52:15 51°35.618 2°41.223 195.9 11.9 190 26.1
2011-01-21 13:53:15 51°35.423 2°41.156 197.2 12 192 27.6
2011-01-21 13:54:15 51°35.263 2°41.096 197 7.1 189 27.6
2011-01-21 13:55:15 51°35.159 2°41.077 195.2 7.3 192 30.7
2011-01-21 13:56:15 51°35.01 2°40.996 204.8 11 205 29.5
2011-01-21 13:57:14 51°34.835 2°40.874 204.1 12 203 36.9
2011-01-21 13:58:14 51°34.655 2°40.752 203.4 10.9 201 33.9
2011-01-21 13:59:14 51°34.55 2°40.676 209.1 5 204 37.7
2011-01-21 14:00:14 51°34.483 2°40.647 200.4 3.7 190 38.3
2011-01-21 14:01:15 51°34.426 2°40.632 202.9 3.2 192 40.7
2011-01-21 14:02:14 51°34.377 2°40.615 202.3 3.1 190 41.3
2011-01-21 14:03:15 51°34.326 2°40.602 202.6 3 193 39.4
2011-01-21 14:04:14 51°34.279 2°40.588 202.9 2.9 190 40.3
2011-01-21 14:05:15 51°34.232 2°40.571 204.3 2.9 195 39.9
2011-01-21 14:06:14 51°34.186 2°40.552 204 2.9 189 40.5
2011-01-21 14:07:15 51°34.129 2°40.53 201.9 4.9 197 40.3
2011-01-21 14:08:14 51°34.008 2°40.458 202.9 9.8 204 40.4
2011-01-21 14:09:14 51°33.837 2°40.338 204.8 11.7 204 39.6
2011-01-21 14:10:15 51°33.652 2°40.209 202.2 11.9 204 41.1
2011-01-21 14:11:15 51°33.47 2°40.081 203.9 11.9 204 40.7
2011-01-21 14:12:15 51°33.28 2°39.99 188.2 12.2 187 42.4
2011-01-21 14:13:15 51°33.081 2°39.953 188.1 11.9 188 41.2
2011-01-21 14:14:15 51°32.883 2°39.912 188.3 12 187 41.5
2011-01-21 14:15:14 51°32.69 2°39.867 188.8 12 189 41.5
2011-01-21 14:16:15 51°32.489 2°39.822 189.4 11.9 187 41.9
2011-01-21 14:17:15 51°32.292 2°39.777 188.8 12 189 40.8
2011-01-21 14:18:15 51°32.094 2°39.734 188.6 11.7 186 41.2
2011-01-21 14:19:15 51°31.898 2°39.69 189.6 11.9 187 40.7
2011-01-21 14:20:14 51°31.702 2°39.692 177.7 12.1 175 41.2
2011-01-21 14:21:14 51°31.5 2°39.718 179.4 12.2 176 39
2011-01-21 14:22:14 51°31.299 2°39.74 178.2 12.2 176 36.5
2011-01-21 14:23:14 51°31.1 2°39.762 180 12.1 176 42.2
2011-01-21 14:24:14 51°30.9 2°39.794 172.5 12.5 167 42.1
2011-01-21 14:25:14 51°30.705 2°39.89 163.3 12.4 158 41
2011-01-21 14:26:15 51°30.518 2°40.045 157.6 12.4 153 43.8
2011-01-21 14:27:15 51°30.331 2°40.199 156.7 12.6 152 38.9
2011-01-21 14:28:14 51°30.148 2°40.343 159.9 12.5 155 40.2
2011-01-21 14:29:14 51°29.962 2°40.49 160.9 12.3 154 38.9
2011-01-21 14:30:15 51°29.772 2°40.641 159.1 12.5 154 37.2
2011-01-21 14:31:14 51°29.59 2°40.79 159.8 12.4 154 36.7
2011-01-21 14:32:15 51°29.406 2°40.966 152.9 13 146 34.4
2011-01-21 14:33:15 51°29.225 2°41.148 154.7 12.8 148 36.5
2011-01-21 14:34:14 51°29.047 2°41.325 156.1 12.8 152 36.3
2011-01-21 14:35:14 51°28.866 2°41.503 154.1 12.5 150 34.6
2011-01-21 14:36:15 51°28.681 2°41.678 154.8 12.8 149 35.2
2011-01-21 14:37:14 51°28.502 2°41.852 154.1 12.7 150 35.4
2011-01-21 14:38:15 51°28.318 2°42.033 153.5 12.7 149 34.9
2011-01-21 14:39:15 51°28.134 2°42.21 153.3 13 148 34.2
2011-01-21 14:40:15 51°27.952 2°42.386 153.2 12.7 149 33.4
2011-01-21 14:41:14 51°27.771 2°42.559 153.9 12.8 150 33.9
2011-01-21 14:42:14 51°27.586 2°42.734 154 13 150 35.2
2011-01-21 14:43:14 51°27.403 2°42.915 152 12.6 148 34.6
2011-01-21 14:44:14 51°27.22 2°43.092 156.1 12.9 151 33
2011-01-21 14:45:14 51°27.036 2°43.266 155.4 12.8 150 33.1
2011-01-21 14:46:14 51°26.85 2°43.435 155.6 12.9 152 28.4
2011-01-21 14:47:14 51°26.665 2°43.608 154.6 12.7 151 28.6
2011-01-21 14:48:15 51°26.475 2°43.781 155.4 12.9 151 27.2
2011-01-21 14:49:15 51°26.29 2°43.956 152.5 13.2 149 29.5
2011-01-21 14:50:15 51°26.109 2°44.141 151.8 12.9 147 27.1
2011-01-21 14:51:14 51°25.93 2°44.323 151.9 13 148 26.9
2011-01-21 14:52:15 51°25.745 2°44.511 152 13 150 27
2011-01-21 14:53:14 51°25.566 2°44.69 151.6 12.7 149 27.5
2011-01-21 14:54:15 51°25.38 2°44.871 152.2 13 149 27.8
2011-01-21 14:55:14 51°25.2 2°45.049 151 12.8 147 26.3
2011-01-21 14:56:15 51°25.015 2°45.231 153.1 12.8 149 26.9
2011-01-21 14:57:14 51°24.837 2°45.412 151.8 12.7 149 29
2011-01-21 14:58:15 51°24.651 2°45.593 152.4 12.8 149 29.2
2011-01-21 14:59:14 51°24.471 2°45.772 151.8 12.9 148 28.7
2011-01-21 15:00:15 51°24.284 2°45.954 152.5 13 148 29.3
2011-01-21 15:01:14 51°24.105 2°46.13 152.1 12.7 148 33
2011-01-21 15:02:14 51°23.922 2°46.312 153.8 13 149 31
2011-01-21 15:03:14 51°23.738 2°46.489 151.5 12.7 148 30.2
2011-01-21 15:04:14 51°23.558 2°46.673 153.5 12.8 148 27.5
2011-01-21 15:05:15 51°23.372 2°46.855 151.1 12.8 147 27.3
2011-01-21 15:06:15 51°23.191 2°47.038 152.9 12.9 147 20.3
2011-01-21 15:07:14 51°23.013 2°47.22 151.8 13.1 147 21.7
2011-01-21 15:08:14 51°22.834 2°47.404 151.6 13 146 19.6
2011-01-21 15:09:14 51°22.656 2°47.596 152.9 13 146 17.4
2011-01-21 15:10:14 51°22.481 2°47.782 152.9 12.5 147 21.2
2011-01-21 15:11:14 51°22.305 2°47.977 152.6 12.9 146 22
2011-01-21 15:12:14 51°22.125 2°48.168 152.5 13 146 26.4
2011-01-21 15:13:14 51°21.941 2°48.357 152.6 13.2 148 26.8
2011-01-21 15:14:14 51°21.759 2°48.553 151.8 13.3 145 26.6
2011-01-21 15:15:15 51°21.572 2°48.742 154.8 13 149 25.7
2011-01-21 15:16:14 51°21.39 2°48.926 151.7 13.3 148 23.6
2011-01-21 15:17:15 51°21.203 2°49.12 152.6 13.3 146 24.5
2011-01-21 15:18:15 51°21.018 2°49.31 151.6 13.4 145 25.2
2011-01-21 15:19:15 51°20.842 2°49.515 147.7 13 142 25.7
2011-01-21 15:20:14 51°20.669 2°49.717 148.2 13 143 25.8
2011-01-21 15:21:15 51°20.496 2°49.925 147.7 12.7 143 24.3
2011-01-21 15:22:14 51°20.326 2°50.12 151.1 12.6 148 21.3
2011-01-21 15:23:15 51°20.136 2°50.278 154.7 12.7 153 18.3
2011-01-21 15:24:14 51°19.95 2°50.436 154.1 12.8 152 17.2
2011-01-21 15:25:15 51°19.757 2°50.599 153.7 13 152 14.8
2011-01-21 15:26:14 51°19.568 2°50.75 158.2 12.9 156 14.8
2011-01-21 15:27:14 51°19.371 2°50.878 158.1 12.6 157 16.8
2011-01-21 15:28:14 51°19.175 2°51.008 159.6 12.8 158 17.4
2011-01-21 15:29:14 51°18.981 2°51.142 159.9 12.7 158 17.5
2011-01-21 15:30:15 51°18.781 2°51.262 159.5 12.8 158 17
2011-01-21 15:31:14 51°18.587 2°51.393 157.9 13 155 16.2
2011-01-21 15:32:14 51°18.394 2°51.531 158 12.7 157 15
2011-01-21 15:33:14 51°18.202 2°51.668 157.1 12.5 155 13.9
2011-01-21 15:34:14 51°18.01 2°51.808 158.6 12.6 157 13
2011-01-21 15:35:15 51°17.814 2°51.944 157.4 12.8 156 12.6
2011-01-21 15:36:14 51°17.624 2°52.078 157.2 12.7 157 13.5
2011-01-21 15:37:15 51°17.424 2°52.213 157 13 156 13.6
2011-01-21 15:38:14 51°17.234 2°52.349 158.6 12.7 157 12.5
2011-01-21 15:39:15 51°17.038 2°52.489 157 12.8 155 12.1
2011-01-21 15:40:14 51°16.85 2°52.638 154.8 13 152 11.9
2011-01-21 15:41:15 51°16.658 2°52.8 154.2 13.1 152 13.5
2011-01-21 15:42:14 51°16.471 2°52.953 159 12.8 158 14.3
2011-01-21 15:43:15 51°16.272 2°53.086 156.3 13.1 154 14.3
2011-01-21 15:44:14 51°16.082 2°53.229 155.7 13.1 156 14
2011-01-21 15:45:15 51°15.888 2°53.4 150.1 13.2 149 13.8
2011-01-21 15:46:14 51°15.709 2°53.585 145.4 13.1 146 14.2
2011-01-21 15:47:14 51°15.532 2°53.788 142.4 13.1 142 13.9
2011-01-21 15:48:14 51°15.36 2°54 143.3 13 144 13.4
2011-01-21 15:49:15 51°15.187 2°54.227 140.9 13.1 141 13.3
2011-01-21 15:50:14 51°15.022 2°54.444 142.3 12.9 141 12.7
2011-01-21 15:51:14 51°14.856 2°54.645 145.5 12 144 13.5
2011-01-21 15:52:14 51°14.702 2°54.847 143.2 12 145 13.5
2011-01-21 15:53:15 51°14.534 2°55.02 145.5 11.8 149 13.4
2011-01-21 15:54:15 51°14.368 2°55.185 144.1 11.5 147 -999
2011-01-21 15:55:18 51°14.22 2°55.336 146.4 8.9 151 -999
2011-01-21 15:56:18 51°14.091 2°55.441 151.3 8.3 155 12.3
2011-01-21 15:57:17 51°13.992 2°55.518 151.9 6 154 12.4
2011-01-21 15:58:18 51°13.898 2°55.592 151.9 6.5 153 -999
2011-01-21 15:59:18 51°13.8 2°55.675 148.2 6.4 149 12.2
2011-01-21 16:00:16 51°13.733 2°55.762 131.5 4.8 132 12.1
2011-01-21 16:01:18 51°13.687 2°55.853 122.7 3.8 125 10.7
2011-01-21 16:02:16 51°13.667 2°55.93 102.6 2.7 105 10.1